Time;durP1;ratioP1;P1;durP2;ratioP2;P2;SDS_P1;SDS_P2;PMS_P1;PMS_P2;Temp;Humidity;BMP_temperature;BMP_pressure;BME280_temperature;BME280_humidity;BME280_pressure;Samples;Min_cycle;Max_cycle;Signal;HPM_P1;HPM_P2
2023/01/30 00:00:34;;;;;;;1.67;1.58;;;;;;;;;;5023563;28;20054;-93
2023/01/30 00:03:02;;;;;;;2.47;2.28;;;;;;;;;;5024260;28;20077;-93
2023/01/30 00:05:28;;;;;;;2.58;1.52;;;;;;;;;;5024025;28;20058;-92
2023/01/30 00:07:55;;;;;;;1.58;1.40;;;;;;;;;;5028308;28;20049;-92
2023/01/30 00:10:21;;;;;;;2.20;1.95;;;;;;;;;;5027234;28;20092;-90
2023/01/30 00:12:48;;;;;;;0.30;0.28;;;;;;;;;;5028281;28;20388;-92
2023/01/30 00:15:14;;;;;;;1.25;1.15;;;;;;;;;;5029775;28;20045;-92
2023/01/30 00:17:41;;;;;;;1.52;1.42;;;;;;;;;;5028698;28;20487;-92
2023/01/30 00:20:10;;;;;;;1.10;1.10;;;;;;;;;;5017381;28;20054;-92
2023/01/30 00:22:36;;;;;;;1.90;1.80;;;;;;;;;;5008694;28;20085;-91
2023/01/30 00:25:03;;;;;;;2.20;1.70;;;;;;;;;;5003815;28;20050;-93
2023/01/30 00:27:30;;;;;;;2.88;1.88;;;;;;;;;;4999438;28;20046;-93
2023/01/30 00:29:56;;;;;;;8.38;1.80;;;;;;;;;;5015705;28;20061;-92
2023/01/30 00:32:25;;;;;;;1.40;1.38;;;;;;;;;;5039388;28;20483;-93
2023/01/30 00:34:51;;;;;;;2.17;1.98;;;;;;;;;;5041304;28;20053;-93
2023/01/30 00:37:19;;;;;;;2.15;1.77;;;;;;;;;;5041387;28;20095;-93
2023/01/30 00:39:46;;;;;;;1.98;1.25;;;;;;;;;;5038567;28;20088;-93
2023/01/30 00:47:39;;;;;;;;;;;;;;;;;;5039300;28;20518;-92
2023/01/30 00:50:06;;;;;;;0.50;0.50;;;;;;;;;;5028162;28;20043;-92
2023/01/30 00:52:34;;;;;;;5.63;3.25;;;;;;;;;;5037626;28;20115;-93
2023/01/30 00:55:01;;;;;;;1.05;1.00;;;;;;;;;;5036654;28;20053;-92
2023/01/30 00:57:27;;;;;;;1.55;1.45;;;;;;;;;;5038738;28;20041;-92
2023/01/30 00:59:54;;;;;;;1.35;1.25;;;;;;;;;;5038481;28;20048;-92
2023/01/30 01:02:20;;;;;;;1.83;1.73;;;;;;;;;;5038974;28;20049;-93
2023/01/30 01:04:47;;;;;;;1.00;0.90;;;;;;;;;;5038473;28;20072;-92
2023/01/30 01:07:13;;;;;;;2.17;1.63;;;;;;;;;;5039170;28;20045;-93
2023/01/30 01:09:41;;;;;;;2.53;2.42;;;;;;;;;;5040996;28;20056;-93
2023/01/30 01:12:08;;;;;;;2.17;1.33;;;;;;;;;;5041023;28;20060;-93
2023/01/30 01:14:35;;;;;;;0.77;0.77;;;;;;;;;;5037763;28;20129;-92
2023/01/30 01:17:02;;;;;;;1.25;1.20;;;;;;;;;;5035972;28;20049;-92
2023/01/30 01:19:28;;;;;;;3.90;2.10;;;;;;;;;;5035884;28;20521;-92
2023/01/30 01:21:55;;;;;;;1.23;0.98;;;;;;;;;;5035853;28;20053;-93
2023/01/30 01:24:21;;;;;;;1.50;1.40;;;;;;;;;;5035456;28;20046;-94
2023/01/30 01:26:49;;;;;;;1.83;1.73;;;;;;;;;;5035829;28;20115;-93
2023/01/30 01:29:16;;;;;;;1.48;1.38;;;;;;;;;;5036220;28;20049;-94
2023/01/30 01:31:43;;;;;;;2.33;2.13;;;;;;;;;;5036470;28;20046;-93
2023/01/30 01:34:10;;;;;;;2.75;2.55;;;;;;;;;;5048924;28;20041;-93
2023/01/30 01:36:37;;;;;;;1.02;0.93;;;;;;;;;;5041828;28;20049;-92
2023/01/30 01:39:03;;;;;;;1.48;0.95;;;;;;;;;;5036269;28;20045;-92
2023/01/30 01:41:29;;;;;;;1.17;1.15;;;;;;;;;;5035848;28;20119;-93
2023/01/30 01:44:04;;;;;;;1.85;1.75;;;;;;;;;;5036095;28;20049;-94
2023/01/30 01:46:32;;;;;;;1.85;0.80;;;;;;;;;;5035581;28;20466;-93
2023/01/30 01:49:00;;;;;;;0.80;0.80;;;;;;;;;;5035343;28;20053;-94
2023/01/30 01:51:29;;;;;;;1.55;1.45;;;;;;;;;;5035025;28;20503;-93
2023/01/30 01:53:58;;;;;;;0.75;0.75;;;;;;;;;;5035330;28;20085;-93
2023/01/30 01:56:25;;;;;;;3.08;2.97;;;;;;;;;;5030577;28;20049;-93
2023/01/30 01:58:54;;;;;;;0.55;0.55;;;;;;;;;;5035235;28;20053;-93
2023/01/30 02:01:22;;;;;;;2.05;1.95;;;;;;;;;;5035460;28;20099;-92
2023/01/30 02:03:51;;;;;;;1.77;1.67;;;;;;;;;;5035598;28;20088;-93
2023/01/30 02:06:18;;;;;;;1.15;1.13;;;;;;;;;;5035260;28;20049;-93
2023/01/30 02:08:46;;;;;;;0.40;0.40;;;;;;;;;;5034640;28;20049;-93
2023/01/30 02:11:14;;;;;;;0.90;0.90;;;;;;;;;;5035477;28;20096;-92
2023/01/30 02:13:40;;;;;;;0.52;0.52;;;;;;;;;;5032804;28;20099;-93
2023/01/30 02:16:08;;;;;;;0.40;0.32;;;;;;;;;;5034372;28;20128;-92
2023/01/30 02:18:37;;;;;;;0.50;0.50;;;;;;;;;;5034692;28;20049;-92
2023/01/30 02:21:21;;;;;;;1.88;1.77;;;;;;;;;;5034660;28;20045;-92
2023/01/30 02:23:57;;;;;;;0.22;0.22;;;;;;;;;;5034546;28;20435;-92
2023/01/30 02:26:47;;;;;;;0.40;0.40;;;;;;;;;;5034055;28;20119;-92
2023/01/30 02:29:26;;;;;;;1.17;1.17;;;;;;;;;;5034495;28;20112;-93
2023/01/30 02:31:56;;;;;;;0.95;0.95;;;;;;;;;;5035764;28;20156;-92
2023/01/30 02:34:33;;;;;;;0.57;0.57;;;;;;;;;;5035218;28;20049;-93
2023/01/30 02:37:02;;;;;;;1.15;1.05;;;;;;;;;;5034604;28;20092;-93
2023/01/30 02:39:33;;;;;;;1.58;1.50;;;;;;;;;;5034731;28;20049;-93
2023/01/30 02:42:03;;;;;;;0.30;0.22;;;;;;;;;;5015232;28;20050;-92
2023/01/30 02:44:33;;;;;;;0.55;0.55;;;;;;;;;;5003967;28;20054;-93
2023/01/30 02:47:03;;;;;;;1.10;1.10;;;;;;;;;;4995145;28;20058;-92
2023/01/30 02:49:32;;;;;;;1.63;1.60;;;;;;;;;;4994683;28;20054;-92
2023/01/30 02:52:00;;;;;;;1.85;1.75;;;;;;;;;;4994742;28;20116;-92
2023/01/30 02:54:26;;;;;;;0.70;0.70;;;;;;;;;;4994828;28;20053;-92
2023/01/30 02:56:56;;;;;;;0.22;0.22;;;;;;;;;;4994824;28;20116;-92
2023/01/30 02:59:26;;;;;;;0.52;0.52;;;;;;;;;;4994252;28;20054;-90
2023/01/30 03:02:14;;;;;;;0.30;0.30;;;;;;;;;;5001727;28;20050;-91
2023/01/30 03:05:01;;;;;;;2.35;2.15;;;;;;;;;;4994394;28;20108;-90
2023/01/30 03:07:34;;;;;;;0.82;0.82;;;;;;;;;;4994406;28;20606;-90
2023/01/30 03:10:04;;;;;;;1.10;1.10;;;;;;;;;;4994359;28;20484;-91
2023/01/30 03:12:37;;;;;;;1.13;1.02;;;;;;;;;;4994469;28;20492;-91
2023/01/30 03:15:06;;;;;;;1.58;1.48;;;;;;;;;;4994463;28;20555;-90
2023/01/30 03:17:32;;;;;;;0.75;0.75;;;;;;;;;;4994725;28;20104;-91
2023/01/30 03:20:00;;;;;;;2.45;2.35;;;;;;;;;;5013443;28;20542;-91
2023/01/30 03:22:27;;;;;;;0.80;0.80;;;;;;;;;;5017924;28;20145;-91
2023/01/30 03:24:54;;;;;;;0.88;0.82;;;;;;;;;;5017789;28;20050;-92
2023/01/30 03:27:21;;;;;;;1.25;1.13;;;;;;;;;;5017823;28;20415;-92
2023/01/30 03:29:48;;;;;;;0.90;0.88;;;;;;;;;;5031239;28;20057;-91
2023/01/30 03:32:14;;;;;;;3.05;2.78;;;;;;;;;;5037589;28;20053;-92
2023/01/30 03:34:41;;;;;;;0.82;0.82;;;;;;;;;;5037953;28;20111;-92
2023/01/30 03:37:09;;;;;;;1.13;1.05;;;;;;;;;;5036528;28;20049;-92
2023/01/30 03:39:35;;;;;;;6.20;2.10;;;;;;;;;;5037644;28;20049;-93
2023/01/30 03:42:02;;;;;;;1.63;1.42;;;;;;;;;;5037713;28;20049;-92
2023/01/30 03:44:28;;;;;;;1.00;0.95;;;;;;;;;;5037549;28;20045;-93
2023/01/30 03:46:55;;;;;;;1.75;1.65;;;;;;;;;;5037434;28;20053;-92
2023/01/30 03:49:21;;;;;;;1.15;1.05;;;;;;;;;;5037644;28;20824;-92
2023/01/30 03:51:47;;;;;;;0.93;0.93;;;;;;;;;;5037405;28;20049;-93
2023/01/30 03:54:15;;;;;;;1.20;1.20;;;;;;;;;;5023619;28;20092;-91
2023/01/30 03:56:42;;;;;;;0.70;0.70;;;;;;;;;;5017201;28;20050;-90
2023/01/30 03:59:08;;;;;;;2.28;1.75;;;;;;;;;;5016683;28;20046;-91
2023/01/30 04:01:35;;;;;;;1.15;1.15;;;;;;;;;;5016945;28;20056;-91
2023/01/30 04:04:01;;;;;;;2.60;2.00;;;;;;;;;;5016627;28;20491;-91
2023/01/30 04:06:28;;;;;;;3.92;1.73;;;;;;;;;;5017145;28;20462;-91
2023/01/30 04:08:54;;;;;;;0.40;0.40;;;;;;;;;;5017037;28;20115;-91
2023/01/30 04:11:22;;;;;;;1.58;1.48;;;;;;;;;;5031578;28;20049;-92
2023/01/30 04:13:49;;;;;;;2.28;2.17;;;;;;;;;;5036801;28;20461;-92
2023/01/30 04:16:16;;;;;;;2.00;1.80;;;;;;;;;;5036889;28;20049;-92
2023/01/30 04:18:43;;;;;;;1.90;1.65;;;;;;;;;;5037100;28;20045;-92
2023/01/30 04:21:09;;;;;;;1.83;1.73;;;;;;;;;;5036946;28;20561;-91
2023/01/30 04:23:36;;;;;;;2.03;1.65;;;;;;;;;;5036927;28;20054;-91
2023/01/30 04:26:02;;;;;;;2.20;2.00;;;;;;;;;;5036733;28;20057;-92
2023/01/30 04:28:30;;;;;;;1.85;1.02;;;;;;;;;;5033304;28;20053;-91
2023/01/30 04:30:57;;;;;;;1.00;1.00;;;;;;;;;;5035689;28;20107;-92
2023/01/30 04:33:23;;;;;;;1.65;1.38;;;;;;;;;;5037101;28;20556;-91
2023/01/30 04:35:53;;;;;;;2.58;2.38;;;;;;;;;;5036365;28;20049;-91
2023/01/30 04:38:19;;;;;;;3.25;2.38;;;;;;;;;;5036504;28;20049;-91
2023/01/30 04:40:48;;;;;;;1.45;1.27;;;;;;;;;;5036028;28;20100;-91
2023/01/30 04:43:14;;;;;;;0.82;0.82;;;;;;;;;;5036734;28;20049;-91
2023/01/30 04:45:44;;;;;;;1.13;1.02;;;;;;;;;;5016145;28;20546;-92
2023/01/30 04:48:10;;;;;;;1.08;1.08;;;;;;;;;;4997091;28;20140;-90
2023/01/30 04:50:37;;;;;;;1.35;1.30;;;;;;;;;;4997216;28;20054;-90
2023/01/30 04:53:03;;;;;;;1.98;1.83;;;;;;;;;;5015801;28;20097;-90
2023/01/30 04:55:30;;;;;;;1.45;1.35;;;;;;;;;;5016821;28;20096;-92
2023/01/30 04:57:56;;;;;;;1.17;1.08;;;;;;;;;;5016546;28;20046;-91
2023/01/30 05:00:23;;;;;;;0.88;0.85;;;;;;;;;;5016378;28;20054;-92
2023/01/30 05:02:51;;;;;;;0.73;0.55;;;;;;;;;;5020349;28;20049;-91
2023/01/30 05:05:17;;;;;;;2.05;1.95;;;;;;;;;;5038701;28;20053;-91
2023/01/30 05:07:44;;;;;;;1.45;1.35;;;;;;;;;;5041358;28;20072;-91
2023/01/30 05:10:11;;;;;;;1.08;0.98;;;;;;;;;;5041292;28;20045;-91
2023/01/30 05:12:38;;;;;;;1.65;1.55;;;;;;;;;;5041572;28;20403;-91
2023/01/30 05:15:05;;;;;;;1.50;1.38;;;;;;;;;;5040866;28;20111;-92
2023/01/30 05:17:32;;;;;;;1.88;1.77;;;;;;;;;;5038014;28;20053;-91
2023/01/30 05:20:00;;;;;;;0.85;0.85;;;;;;;;;;5022529;28;20096;-92
2023/01/30 05:22:26;;;;;;;1.67;1.58;;;;;;;;;;5020602;28;20053;-92
2023/01/30 05:24:53;;;;;;;1.10;1.05;;;;;;;;;;5020409;28;20054;-87
2023/01/30 05:27:19;;;;;;;6.70;2.65;;;;;;;;;;5013345;28;20058;-90
2023/01/30 05:29:46;;;;;;;2.17;2.08;;;;;;;;;;5034174;28;20057;-91
2023/01/30 05:32:13;;;;;;;0.80;0.80;;;;;;;;;;5039950;28;20507;-90
2023/01/30 05:34:39;;;;;;;11.57;2.28;;;;;;;;;;5038652;28;20477;-91
2023/01/30 05:37:07;;;;;;;1.77;1.13;;;;;;;;;;5040033;28;20491;-92
2023/01/30 05:39:34;;;;;;;3.20;3.03;;;;;;;;;;5041799;28;20122;-93
2023/01/30 05:42:00;;;;;;;1.77;1.67;;;;;;;;;;5039305;28;20053;-91
2023/01/30 05:44:27;;;;;;;1.77;1.67;;;;;;;;;;5039847;28;20053;-91
2023/01/30 05:46:53;;;;;;;0.75;0.75;;;;;;;;;;5039840;28;20053;-91
2023/01/30 05:49:20;;;;;;;2.20;2.05;;;;;;;;;;5040119;28;20046;-91
2023/01/30 05:51:46;;;;;;;1.48;1.38;;;;;;;;;;5037031;28;20096;-90
2023/01/30 05:54:14;;;;;;;2.13;1.98;;;;;;;;;;5040378;28;20053;-90
2023/01/30 05:56:41;;;;;;;4.40;3.78;;;;;;;;;;5039712;28;20045;-91
2023/01/30 05:59:11;;;;;;;3.50;3.30;;;;;;;;;;5039565;28;20064;-90
2023/01/30 06:01:37;;;;;;;5.38;5.05;;;;;;;;;;5040037;28;20041;-90
2023/01/30 06:04:04;;;;;;;4.18;1.95;;;;;;;;;;5040580;28;20046;-90
2023/01/30 06:06:31;;;;;;;3.92;2.92;;;;;;;;;;5041586;28;20046;-92
2023/01/30 06:08:57;;;;;;;3.90;3.58;;;;;;;;;;5040056;28;20053;-92
2023/01/30 06:11:25;;;;;;;1.92;1.83;;;;;;;;;;5037569;28;21113;-90
2023/01/30 06:13:52;;;;;;;2.63;2.42;;;;;;;;;;5034494;28;20119;-89
2023/01/30 06:16:18;;;;;;;2.72;2.63;;;;;;;;;;5038714;28;20122;-92
2023/01/30 06:18:45;;;;;;;1.85;1.75;;;;;;;;;;5036276;28;20053;-92
2023/01/30 06:21:13;;;;;;;1.88;1.70;;;;;;;;;;5034995;28;20061;-92
2023/01/30 06:23:39;;;;;;;4.28;3.22;;;;;;;;;;5034916;28;20088;-91
2023/01/30 06:26:06;;;;;;;1.35;1.25;;;;;;;;;;5032862;28;20057;-92
2023/01/30 06:28:34;;;;;;;2.20;2.10;;;;;;;;;;5024990;28;20050;-90
2023/01/30 06:31:00;;;;;;;4.85;3.90;;;;;;;;;;5033094;28;20053;-89
2023/01/30 06:33:27;;;;;;;3.58;3.38;;;;;;;;;;5034700;28;20045;-93
2023/01/30 06:35:53;;;;;;;4.85;4.45;;;;;;;;;;5035809;28;20053;-92
2023/01/30 06:38:20;;;;;;;2.88;2.67;;;;;;;;;;5035787;28;20049;-90
2023/01/30 06:40:47;;;;;;;1.73;1.63;;;;;;;;;;5034614;28;20041;-91
2023/01/30 06:43:14;;;;;;;5.38;4.80;;;;;;;;;;5033152;28;20100;-90
2023/01/30 06:45:42;;;;;;;4.90;4.50;;;;;;;;;;5034612;28;20080;-90
2023/01/30 06:48:09;;;;;;;3.83;1.95;;;;;;;;;;5034100;28;20115;-92
2023/01/30 06:50:35;;;;;;;2.70;2.50;;;;;;;;;;5034123;28;20049;-91
2023/01/30 06:53:02;;;;;;;3.72;3.42;;;;;;;;;;5032397;28;20100;-92
2023/01/30 06:55:29;;;;;;;4.05;2.90;;;;;;;;;;5015159;28;20045;-92
2023/01/30 06:58:11;;;;;;;1.38;1.27;;;;;;;;;;5016253;28;20060;-92
2023/01/30 07:00:39;;;;;;;4.43;2.67;;;;;;;;;;5023355;28;20042;-90
2023/01/30 07:03:10;;;;;;;2.45;2.25;;;;;;;;;;5026632;28;20085;-91
2023/01/30 07:05:37;;;;;;;3.92;3.63;;;;;;;;;;5033478;28;20054;-91
2023/01/30 07:08:03;;;;;;;3.30;2.63;;;;;;;;;;5033579;28;20054;-91
2023/01/30 07:10:31;;;;;;;4.53;4.13;;;;;;;;;;5034622;28;20046;-92
2023/01/30 07:12:57;;;;;;;3.22;2.92;;;;;;;;;;5037056;28;20103;-92
2023/01/30 07:15:24;;;;;;;4.47;3.75;;;;;;;;;;5034738;28;20045;-92
2023/01/30 07:17:50;;;;;;;1.95;1.77;;;;;;;;;;5032367;28;20050;-91
2023/01/30 07:20:19;;;;;;;2.45;2.08;;;;;;;;;;5033613;28;20095;-92
2023/01/30 07:22:48;;;;;;;2.97;2.72;;;;;;;;;;5034042;28;20046;-92
2023/01/30 07:25:16;;;;;;;3.92;3.40;;;;;;;;;;5034633;28;20095;-92
2023/01/30 07:27:42;;;;;;;3.83;3.55;;;;;;;;;;5032860;28;20053;-92
2023/01/30 07:30:09;;;;;;;4.25;3.70;;;;;;;;;;5033325;28;20065;-92
2023/01/30 07:32:36;;;;;;;2.67;2.35;;;;;;;;;;5033959;28;20053;-92
2023/01/30 07:35:02;;;;;;;4.93;3.13;;;;;;;;;;5031435;28;20053;-91
2023/01/30 07:37:30;;;;;;;3.97;3.58;;;;;;;;;;5033013;28;20123;-91
2023/01/30 07:39:57;;;;;;;3.55;3.25;;;;;;;;;;5033577;28;20050;-92
2023/01/30 07:42:23;;;;;;;12.32;4.70;;;;;;;;;;5034170;28;20046;-91
2023/01/30 07:44:50;;;;;;;1.77;1.67;;;;;;;;;;5035160;28;20683;-91
2023/01/30 07:47:18;;;;;;;3.53;3.25;;;;;;;;;;5033675;28;20050;-90
2023/01/30 07:49:45;;;;;;;5.95;4.13;;;;;;;;;;5033940;28;20144;-91
2023/01/30 07:52:11;;;;;;;2.88;2.67;;;;;;;;;;5032995;28;20095;-91
2023/01/30 07:54:42;;;;;;;7.72;2.80;;;;;;;;;;5033106;28;20049;-91
2023/01/30 07:57:14;;;;;;;3.65;2.47;;;;;;;;;;5033859;28;20047;-92
2023/01/30 07:59:41;;;;;;;2.10;2.00;;;;;;;;;;5035529;28;20046;-91
2023/01/30 08:02:09;;;;;;;5.03;4.20;;;;;;;;;;5033692;28;20053;-91
2023/01/30 08:04:35;;;;;;;5.13;4.50;;;;;;;;;;5032966;28;20200;-92
2023/01/30 08:07:02;;;;;;;9.52;5.75;;;;;;;;;;5035981;28;20045;-92
2023/01/30 08:09:28;;;;;;;4.88;4.07;;;;;;;;;;5036992;28;20168;-92
2023/01/30 08:11:56;;;;;;;3.97;3.70;;;;;;;;;;5034386;28;20049;-91
2023/01/30 08:14:24;;;;;;;3.55;3.25;;;;;;;;;;5036476;28;20045;-92
2023/01/30 08:16:51;;;;;;;2.60;2.45;;;;;;;;;;5036431;28;20057;-93
2023/01/30 08:19:17;;;;;;;3.83;3.53;;;;;;;;;;5036668;28;20053;-93
2023/01/30 08:21:44;;;;;;;4.40;4.03;;;;;;;;;;5036766;28;20537;-93
2023/01/30 08:24:10;;;;;;;2.55;2.45;;;;;;;;;;5037015;28;20095;-95
2023/01/30 08:26:37;;;;;;;1.52;1.42;;;;;;;;;;5037061;28;20041;-94
2023/01/30 08:29:05;;;;;;;1.58;1.38;;;;;;;;;;5035616;28;20065;-93
2023/01/30 08:31:32;;;;;;;1.45;1.35;;;;;;;;;;5037149;28;20045;-92
2023/01/30 08:33:58;;;;;;;1.83;1.73;;;;;;;;;;5021113;28;20503;-95
2023/01/30 08:36:25;;;;;;;1.50;1.27;;;;;;;;;;5018472;28;20054;-94
2023/01/30 08:38:51;;;;;;;0.52;0.52;;;;;;;;;;5020818;28;20054;-91
2023/01/30 08:41:18;;;;;;;1.58;1.42;;;;;;;;;;5016729;28;20100;-94
2023/01/30 08:43:44;;;;;;;0.90;0.63;;;;;;;;;;5016848;28;20476;-94
2023/01/30 08:46:12;;;;;;;0.85;0.85;;;;;;;;;;5016224;28;20053;-91
2023/01/30 08:48:40;;;;;;;2.65;2.55;;;;;;;;;;5015920;28;20049;-89
2023/01/30 08:51:06;;;;;;;0.82;0.82;;;;;;;;;;5015789;28;20092;-91
2023/01/30 08:53:33;;;;;;;3.58;2.08;;;;;;;;;;5016882;28;20053;-91
2023/01/30 08:55:59;;;;;;;1.40;1.13;;;;;;;;;;5016833;28;20046;-91
2023/01/30 08:58:26;;;;;;;1.73;1.63;;;;;;;;;;5017940;28;20483;-90
2023/01/30 09:00:52;;;;;;;2.65;2.47;;;;;;;;;;5016107;28;20050;-91
2023/01/30 09:03:20;;;;;;;1.13;0.93;;;;;;;;;;5015779;28;20054;-90
2023/01/30 09:05:47;;;;;;;0.88;0.88;;;;;;;;;;5015924;28;20058;-91
2023/01/30 09:08:13;;;;;;;4.47;2.42;;;;;;;;;;5015887;28;20100;-91
2023/01/30 09:10:40;;;;;;;0.40;0.35;;;;;;;;;;5017145;28;20053;-90
2023/01/30 09:13:08;;;;;;;3.05;2.85;;;;;;;;;;5008377;28;20042;-91
2023/01/30 09:15:35;;;;;;;2.92;2.72;;;;;;;;;;4996616;28;20042;-91
2023/01/30 09:18:02;;;;;;;4.18;2.55;;;;;;;;;;4995700;28;20451;-91
2023/01/30 09:20:30;;;;;;;3.03;1.77;;;;;;;;;;4995967;28;20047;-92
2023/01/30 09:22:56;;;;;;;1.58;1.48;;;;;;;;;;5005060;28;20054;-91
2023/01/30 09:25:22;;;;;;;5.10;3.05;;;;;;;;;;5015396;28;20053;-91
2023/01/30 09:27:49;;;;;;;3.15;2.38;;;;;;;;;;5015513;28;20401;-90
2023/01/30 09:30:16;;;;;;;1.45;1.38;;;;;;;;;;5032521;28;20499;-91
2023/01/30 09:32:43;;;;;;;2.30;2.20;;;;;;;;;;5036102;28;20048;-91
2023/01/30 09:35:10;;;;;;;0.82;0.82;;;;;;;;;;5034930;28;20053;-91
2023/01/30 09:37:38;;;;;;;1.13;1.13;;;;;;;;;;5035041;28;20100;-90
2023/01/30 09:40:05;;;;;;;5.93;2.90;;;;;;;;;;5034523;28;20095;-91
2023/01/30 09:42:41;;;;;;;2.45;2.25;;;;;;;;;;5033847;28;20103;-92
2023/01/30 09:45:20;;;;;;;1.27;1.17;;;;;;;;;;5033400;28;20046;-91
2023/01/30 09:47:54;;;;;;;5.00;3.88;;;;;;;;;;5034704;28;20092;-92
2023/01/30 09:50:29;;;;;;;0.35;0.30;;;;;;;;;;5034432;28;20088;-91
2023/01/30 09:53:01;;;;;;;2.92;2.30;;;;;;;;;;5034484;28;20041;-91
2023/01/30 09:55:30;;;;;;;2.08;1.98;;;;;;;;;;5034418;28;20095;-92
2023/01/30 09:57:57;;;;;;;4.75;2.88;;;;;;;;;;5050389;28;20160;-91
2023/01/30 10:00:28;;;;;;;1.50;1.40;;;;;;;;;;5034238;28;20116;-91
2023/01/30 10:02:59;;;;;;;1.75;1.67;;;;;;;;;;5034560;28;20450;-92
2023/01/30 10:05:27;;;;;;;2.60;2.33;;;;;;;;;;5034670;28;20050;-91
2023/01/30 10:08:02;;;;;;;4.35;2.30;;;;;;;;;;5034039;28;20057;-91
2023/01/30 10:10:35;;;;;;;2.15;1.95;;;;;;;;;;5034167;28;20045;-91
2023/01/30 10:13:06;;;;;;;2.38;2.22;;;;;;;;;;5034409;28;20045;-91
2023/01/30 10:15:42;;;;;;;2.55;2.45;;;;;;;;;;5034348;28;20184;-92
2023/01/30 10:18:24;;;;;;;2.80;2.30;;;;;;;;;;5037404;28;20495;-92
2023/01/30 10:20:53;;;;;;;3.38;3.17;;;;;;;;;;5033856;28;20494;-92
2023/01/30 10:23:32;;;;;;;1.33;1.23;;;;;;;;;;5033647;28;20057;-91
2023/01/30 10:26:01;;;;;;;3.58;3.38;;;;;;;;;;5034318;28;20549;-91
2023/01/30 10:28:30;;;;;;;1.42;1.23;;;;;;;;;;5032774;28;20061;-92
2023/01/30 10:31:00;;;;;;;2.33;2.22;;;;;;;;;;5016701;28;20106;-91
2023/01/30 10:33:31;;;;;;;0.85;0.85;;;;;;;;;;5032534;28;20438;-92
2023/01/30 10:36:00;;;;;;;2.17;1.90;;;;;;;;;;5036035;28;20136;-91
2023/01/30 10:38:30;;;;;;;1.77;1.67;;;;;;;;;;5034802;28;20061;-91
2023/01/30 10:40:59;;;;;;;2.03;1.92;;;;;;;;;;5033365;28;20045;-92
2023/01/30 10:43:28;;;;;;;1.15;1.05;;;;;;;;;;5033625;28;20060;-90
2023/01/30 10:46:00;;;;;;;2.22;2.13;;;;;;;;;;5034398;28;20049;-91
2023/01/30 10:48:45;;;;;;;1.85;1.75;;;;;;;;;;5034416;28;20576;-91
2023/01/30 10:51:16;;;;;;;1.92;1.83;;;;;;;;;;5034330;28;20056;-92
2023/01/30 10:53:46;;;;;;;2.25;2.00;;;;;;;;;;5034039;28;20075;-92
2023/01/30 10:56:17;;;;;;;5.78;5.18;;;;;;;;;;5034888;28;20049;-89
2023/01/30 10:58:48;;;;;;;2.55;2.35;;;;;;;;;;5031747;28;20100;-92
2023/01/30 11:01:18;;;;;;;1.45;1.35;;;;;;;;;;5033808;28;20045;-92
2023/01/30 11:03:46;;;;;;;2.78;2.67;;;;;;;;;;5031641;28;20457;-93
2023/01/30 11:06:16;;;;;;;2.15;2.05;;;;;;;;;;5033247;28;20049;-92
2023/01/30 11:08:44;;;;;;;1.20;1.15;;;;;;;;;;5031942;28;20045;-92
2023/01/30 11:11:22;;;;;;;2.00;1.40;;;;;;;;;;5034068;28;20469;-92
2023/01/30 11:13:48;;;;;;;1.77;1.52;;;;;;;;;;5033640;28;20045;-92
2023/01/30 11:16:15;;;;;;;2.17;1.98;;;;;;;;;;5032766;28;20050;-93
2023/01/30 11:18:45;;;;;;;2.22;1.30;;;;;;;;;;5033642;28;20088;-89
2023/01/30 11:21:19;;;;;;;1.70;1.60;;;;;;;;;;5033415;28;20117;-89
2023/01/30 11:23:47;;;;;;;0.82;0.77;;;;;;;;;;5033549;28;20076;-90
2023/01/30 11:26:19;;;;;;;3.25;3.05;;;;;;;;;;5033249;28;20468;-91
2023/01/30 11:28:46;;;;;;;1.10;0.93;;;;;;;;;;5033719;28;20111;-91
2023/01/30 11:31:17;;;;;;;1.58;1.48;;;;;;;;;;5029617;28;20037;-90
2023/01/30 11:33:43;;;;;;;2.75;2.53;;;;;;;;;;5009381;28;20101;-90
2023/01/30 11:36:24;;;;;;;2.58;2.47;;;;;;;;;;5005869;28;20057;-91
2023/01/30 11:38:56;;;;;;;1.15;1.00;;;;;;;;;;5003894;28;20464;-91
2023/01/30 11:41:23;;;;;;;3.72;3.45;;;;;;;;;;5015217;28;20735;-91
2023/01/30 11:43:49;;;;;;;4.07;3.78;;;;;;;;;;5012281;28;20054;-90
2023/01/30 11:46:17;;;;;;;1.80;1.70;;;;;;;;;;4997308;28;20101;-91
2023/01/30 11:48:48;;;;;;;1.98;1.50;;;;;;;;;;5013980;28;20533;-90
2023/01/30 11:51:16;;;;;;;5.32;2.28;;;;;;;;;;5019574;28;20104;-91
2023/01/30 11:53:45;;;;;;;1.83;1.73;;;;;;;;;;5014298;28;20058;-91
2023/01/30 11:56:17;;;;;;;3.15;2.92;;;;;;;;;;5002918;28;21498;-91
2023/01/30 11:58:46;;;;;;;1.25;1.15;;;;;;;;;;5013668;28;20050;-90
2023/01/30 12:01:15;;;;;;;1.67;1.58;;;;;;;;;;5013523;28;20042;-90
2023/01/30 12:03:45;;;;;;;2.10;2.00;;;;;;;;;;5016813;28;20096;-90
2023/01/30 12:06:12;;;;;;;2.22;2.13;;;;;;;;;;5016133;28;20562;-89
2023/01/30 12:08:39;;;;;;;2.28;2.08;;;;;;;;;;5014657;28;20117;-90
2023/01/30 12:11:23;;;;;;;1.13;1.02;;;;;;;;;;5013006;28;20049;-91
2023/01/30 12:13:51;;;;;;;2.55;2.38;;;;;;;;;;4996791;28;20046;-90
2023/01/30 12:16:21;;;;;;;2.78;2.55;;;;;;;;;;5008057;28;20049;-91
2023/01/30 12:18:54;;;;;;;2.97;2.63;;;;;;;;;;5016486;28;20057;-89
2023/01/30 12:21:26;;;;;;;1.77;1.50;;;;;;;;;;5016556;28;20100;-90
2023/01/30 12:23:56;;;;;;;2.22;2.00;;;;;;;;;;5016598;28;20046;-90
2023/01/30 12:26:26;;;;;;;3.13;2.60;;;;;;;;;;5014267;28;20062;-90
2023/01/30 12:28:56;;;;;;;2.17;2.08;;;;;;;;;;5022573;28;20053;-89
2023/01/30 12:31:25;;;;;;;1.70;1.60;;;;;;;;;;5036662;28;20095;-90
2023/01/30 12:33:53;;;;;;;2.50;2.30;;;;;;;;;;5028832;28;20038;-90
2023/01/30 12:36:24;;;;;;;1.40;1.30;;;;;;;;;;5021976;28;20112;-90
2023/01/30 12:39:05;;;;;;;1.30;1.27;;;;;;;;;;5021900;28;20116;-90
2023/01/30 12:41:41;;;;;;;1.63;1.55;;;;;;;;;;5035127;28;20042;-91
2023/01/30 12:44:16;;;;;;;2.60;1.63;;;;;;;;;;5033338;28;20054;-89
2023/01/30 12:46:50;;;;;;;1.92;1.83;;;;;;;;;;5017409;28;20448;-89
2023/01/30 12:49:32;;;;;;;2.38;1.35;;;;;;;;;;5033071;28;20495;-90
2023/01/30 12:52:06;;;;;;;2.40;2.22;;;;;;;;;;5026074;28;20399;-89
2023/01/30 12:54:41;;;;;;;2.30;1.60;;;;;;;;;;5027108;28;20049;-90
2023/01/30 12:57:13;;;;;;;1.27;1.17;;;;;;;;;;5035960;28;20053;-91
2023/01/30 12:59:49;;;;;;;2.47;1.38;;;;;;;;;;5028723;28;20120;-90
2023/01/30 13:02:30;;;;;;;2.83;1.48;;;;;;;;;;5016163;28;20646;-90
2023/01/30 13:05:10;;;;;;;0.95;0.95;;;;;;;;;;5013811;28;20050;-90
2023/01/30 13:07:40;;;;;;;1.52;1.42;;;;;;;;;;4995941;28;20101;-90
2023/01/30 13:10:13;;;;;;;1.88;1.75;;;;;;;;;;4996028;28;20121;-91
2023/01/30 13:12:43;;;;;;;1.75;1.65;;;;;;;;;;4995978;28;20097;-90
2023/01/30 13:15:16;;;;;;;2.17;1.98;;;;;;;;;;5028101;28;20056;-90
2023/01/30 13:17:47;;;;;;;2.50;2.35;;;;;;;;;;4995850;28;20046;-90
2023/01/30 13:20:19;;;;;;;1.98;1.88;;;;;;;;;;5009008;28;20093;-90
2023/01/30 13:22:49;;;;;;;1.58;1.48;;;;;;;;;;5015087;28;20049;-91
2023/01/30 13:25:21;;;;;;;3.47;2.38;;;;;;;;;;5018668;28;20061;-91
2023/01/30 13:27:52;;;;;;;2.17;1.50;;;;;;;;;;5041424;28;20054;-90
2023/01/30 13:30:24;;;;;;;2.55;1.95;;;;;;;;;;5017933;28;20058;-89
2023/01/30 13:33:00;;;;;;;2.60;2.28;;;;;;;;;;4997465;28;20050;-89
2023/01/30 13:35:30;;;;;;;1.70;1.60;;;;;;;;;;5035836;28;20053;-90
2023/01/30 13:37:57;;;;;;;1.00;1.00;;;;;;;;;;5039315;28;20054;-90
2023/01/30 13:40:25;;;;;;;2.22;2.05;;;;;;;;;;5025962;28;20056;-90
2023/01/30 13:42:55;;;;;;;4.88;4.57;;;;;;;;;;5011058;28;20499;-90
2023/01/30 13:45:24;;;;;;;1.38;1.27;;;;;;;;;;5024106;28;20076;-90
2023/01/30 13:47:56;;;;;;;2.33;2.10;;;;;;;;;;5040804;28;20175;-90
2023/01/30 13:50:47;;;;;;;2.40;2.30;;;;;;;;;;5014719;28;20084;-90
2023/01/30 13:53:17;;;;;;;1.98;1.80;;;;;;;;;;5010088;28;20381;-90
2023/01/30 13:55:47;;;;;;;1.45;1.38;;;;;;;;;;4998356;28;20496;-90
2023/01/30 13:58:24;;;;;;;1.20;1.20;;;;;;;;;;4995896;28;20058;-90
2023/01/30 14:00:55;;;;;;;1.27;1.23;;;;;;;;;;4997234;28;20145;-90
2023/01/30 14:03:27;;;;;;;1.70;1.27;;;;;;;;;;5019975;28;20061;-90
2023/01/30 14:06:15;;;;;;;2.30;2.20;;;;;;;;;;5015148;28;20050;-90
2023/01/30 14:08:49;;;;;;;2.17;2.03;;;;;;;;;;5029925;28;20045;-90
2023/01/30 14:11:29;;;;;;;1.65;1.55;;;;;;;;;;5015101;28;20045;-91
2023/01/30 14:13:59;;;;;;;1.45;1.35;;;;;;;;;;5014907;28;20087;-91
2023/01/30 14:16:39;;;;;;;1.90;1.80;;;;;;;;;;5038773;28;20077;-90
2023/01/30 14:19:19;;;;;;;1.88;1.77;;;;;;;;;;5017993;28;20046;-90
2023/01/30 14:21:54;;;;;;;9.70;3.63;;;;;;;;;;5002874;28;20050;-91
2023/01/30 14:24:23;;;;;;;1.77;1.50;;;;;;;;;;5015672;28;20061;-90
2023/01/30 14:27:05;;;;;;;3.95;2.08;;;;;;;;;;5034482;28;20061;-92
2023/01/30 14:29:50;;;;;;;2.13;2.03;;;;;;;;;;5022418;28;20523;-92
2023/01/30 14:32:51;;;;;;;1.35;1.25;;;;;;;;;;4995690;28;20104;-93
2023/01/30 14:35:25;;;;;;;1.55;1.20;;;;;;;;;;5004724;28;20058;-93
2023/01/30 14:38:04;;;;;;;1.75;1.65;;;;;;;;;;5021608;28;20050;-92
2023/01/30 14:40:38;;;;;;;0.52;0.52;;;;;;;;;;5006928;28;20521;-92
2023/01/30 14:43:23;;;;;;;6.00;3.15;;;;;;;;;;5031481;28;20483;-92
2023/01/30 14:45:51;;;;;;;3.17;2.38;;;;;;;;;;5029344;28;20490;-92
2023/01/30 14:48:26;;;;;;;2.22;2.00;;;;;;;;;;5017680;28;20054;-92
2023/01/30 14:51:09;;;;;;;0.68;0.68;;;;;;;;;;5003088;28;20050;-91
2023/01/30 14:53:37;;;;;;;2.08;1.88;;;;;;;;;;4994716;28;20077;-92
2023/01/30 14:56:04;;;;;;;2.58;2.45;;;;;;;;;;4994449;28;20050;-92
2023/01/30 14:58:30;;;;;;;4.25;3.95;;;;;;;;;;5013370;28;20046;-92
2023/01/30 15:00:58;;;;;;;2.08;1.73;;;;;;;;;;5013502;28;20058;-92